sensor_id;sensor_type;location;lat;lon;timestamp;P1;durP1;ratioP1;P2;durP2;ratioP2
2488;SDS011;1255;48.716;9.124;2023-06-24T00:00:07;3.43;;;3.13;;
2488;SDS011;1255;48.716;9.124;2023-06-24T00:02:37;3.63;;;3.00;;
2488;SDS011;1255;48.716;9.124;2023-06-24T00:05:06;3.23;;;2.93;;
2488;SDS011;1255;48.716;9.124;2023-06-24T00:07:35;3.43;;;3.13;;
2488;SDS011;1255;48.716;9.124;2023-06-24T00:10:09;4.40;;;3.70;;
2488;SDS011;1255;48.716;9.124;2023-06-24T00:12:37;4.70;;;3.50;;
2488;SDS011;1255;48.716;9.124;2023-06-24T00:15:04;3.37;;;3.07;;
2488;SDS011;1255;48.716;9.124;2023-06-24T00:17:32;3.40;;;3.10;;
2488;SDS011;1255;48.716;9.124;2023-06-24T00:19:59;3.67;;;3.13;;
2488;SDS011;1255;48.716;9.124;2023-06-24T00:22:26;4.70;;;3.67;;
2488;SDS011;1255;48.716;9.124;2023-06-24T00:24:54;4.10;;;3.70;;
2488;SDS011;1255;48.716;9.124;2023-06-24T00:27:21;4.10;;;3.20;;
2488;SDS011;1255;48.716;9.124;2023-06-24T00:29:48;3.67;;;3.37;;
2488;SDS011;1255;48.716;9.124;2023-06-24T00:32:15;3.67;;;3.33;;
2488;SDS011;1255;48.716;9.124;2023-06-24T00:34:42;3.90;;;3.23;;
2488;SDS011;1255;48.716;9.124;2023-06-24T00:37:08;5.47;;;3.60;;
2488;SDS011;1255;48.716;9.124;2023-06-24T00:39:35;4.13;;;3.33;;
2488;SDS011;1255;48.716;9.124;2023-06-24T00:42:04;3.67;;;3.27;;
2488;SDS011;1255;48.716;9.124;2023-06-24T00:44:31;4.37;;;3.90;;
2488;SDS011;1255;48.716;9.124;2023-06-24T00:46:58;5.73;;;3.47;;
2488;SDS011;1255;48.716;9.124;2023-06-24T00:49:25;4.23;;;3.03;;
2488;SDS011;1255;48.716;9.124;2023-06-24T00:51:52;4.50;;;3.47;;
2488;SDS011;1255;48.716;9.124;2023-06-24T00:54:20;4.13;;;3.40;;
2488;SDS011;1255;48.716;9.124;2023-06-24T00:56:56;5.67;;;4.33;;
2488;SDS011;1255;48.716;9.124;2023-06-24T00:59:26;4.10;;;3.13;;
2488;SDS011;1255;48.716;9.124;2023-06-24T01:01:57;4.37;;;3.97;;
2488;SDS011;1255;48.716;9.124;2023-06-24T01:04:26;4.27;;;3.70;;
2488;SDS011;1255;48.716;9.124;2023-06-24T01:06:54;3.83;;;3.43;;
2488;SDS011;1255;48.716;9.124;2023-06-24T01:09:23;4.70;;;3.40;;
2488;SDS011;1255;48.716;9.124;2023-06-24T01:11:50;4.73;;;3.37;;
2488;SDS011;1255;48.716;9.124;2023-06-24T01:14:17;4.93;;;3.57;;
2488;SDS011;1255;48.716;9.124;2023-06-24T01:16:48;3.57;;;3.27;;
2488;SDS011;1255;48.716;9.124;2023-06-24T01:22:19;4.57;;;3.77;;
2488;SDS011;1255;48.716;9.124;2023-06-24T01:25:01;4.17;;;3.17;;
2488;SDS011;1255;48.716;9.124;2023-06-24T01:27:45;4.60;;;3.80;;
2488;SDS011;1255;48.716;9.124;2023-06-24T01:30:34;4.80;;;3.77;;
2488;SDS011;1255;48.716;9.124;2023-06-24T01:33:17;4.10;;;3.37;;
2488;SDS011;1255;48.716;9.124;2023-06-24T01:35:50;4.93;;;3.80;;
2488;SDS011;1255;48.716;9.124;2023-06-24T01:38:20;3.67;;;3.37;;
2488;SDS011;1255;48.716;9.124;2023-06-24T01:40:49;4.67;;;3.80;;
2488;SDS011;1255;48.716;9.124;2023-06-24T01:43:17;4.90;;;3.73;;
2488;SDS011;1255;48.716;9.124;2023-06-24T01:45:48;4.10;;;3.70;;
2488;SDS011;1255;48.716;9.124;2023-06-24T01:48:18;4.07;;;3.67;;
2488;SDS011;1255;48.716;9.124;2023-06-24T01:50:52;4.13;;;3.67;;
2488;SDS011;1255;48.716;9.124;2023-06-24T01:53:23;4.13;;;3.57;;
2488;SDS011;1255;48.716;9.124;2023-06-24T01:55:52;3.80;;;3.40;;
2488;SDS011;1255;48.716;9.124;2023-06-24T01:58:20;3.60;;;3.30;;
2488;SDS011;1255;48.716;9.124;2023-06-24T02:00:49;3.70;;;3.03;;
2488;SDS011;1255;48.716;9.124;2023-06-24T02:03:19;5.17;;;3.27;;
2488;SDS011;1255;48.716;9.124;2023-06-24T02:05:47;4.07;;;3.67;;
2488;SDS011;1255;48.716;9.124;2023-06-24T02:08:15;3.50;;;3.20;;
2488;SDS011;1255;48.716;9.124;2023-06-24T02:10:44;4.40;;;3.57;;
2488;SDS011;1255;48.716;9.124;2023-06-24T02:13:12;3.67;;;3.33;;
2488;SDS011;1255;48.716;9.124;2023-06-24T02:15:39;4.03;;;3.33;;
2488;SDS011;1255;48.716;9.124;2023-06-24T02:18:08;4.00;;;3.60;;
2488;SDS011;1255;48.716;9.124;2023-06-24T02:20:38;4.47;;;3.93;;
2488;SDS011;1255;48.716;9.124;2023-06-24T02:23:07;4.13;;;3.70;;
2488;SDS011;1255;48.716;9.124;2023-06-24T02:25:35;4.40;;;3.80;;
2488;SDS011;1255;48.716;9.124;2023-06-24T02:28:04;4.53;;;4.13;;
2488;SDS011;1255;48.716;9.124;2023-06-24T02:30:32;4.23;;;3.67;;
2488;SDS011;1255;48.716;9.124;2023-06-24T02:33:00;4.17;;;3.60;;
2488;SDS011;1255;48.716;9.124;2023-06-24T02:35:27;4.90;;;4.40;;
2488;SDS011;1255;48.716;9.124;2023-06-24T02:37:55;4.20;;;3.80;;
2488;SDS011;1255;48.716;9.124;2023-06-24T02:40:22;4.63;;;4.03;;
2488;SDS011;1255;48.716;9.124;2023-06-24T02:42:49;4.03;;;3.67;;
2488;SDS011;1255;48.716;9.124;2023-06-24T02:45:15;5.43;;;3.57;;
2488;SDS011;1255;48.716;9.124;2023-06-24T02:47:43;3.90;;;3.50;;
2488;SDS011;1255;48.716;9.124;2023-06-24T02:50:12;4.30;;;3.60;;
2488;SDS011;1255;48.716;9.124;2023-06-24T02:52:40;5.27;;;3.57;;
2488;SDS011;1255;48.716;9.124;2023-06-24T02:55:08;3.80;;;3.40;;
2488;SDS011;1255;48.716;9.124;2023-06-24T02:57:36;4.93;;;4.17;;
2488;SDS011;1255;48.716;9.124;2023-06-24T03:00:04;5.63;;;3.90;;
2488;SDS011;1255;48.716;9.124;2023-06-24T03:02:33;5.60;;;4.10;;
2488;SDS011;1255;48.716;9.124;2023-06-24T03:05:01;8.13;;;4.13;;
2488;SDS011;1255;48.716;9.124;2023-06-24T03:07:29;3.80;;;3.47;;
2488;SDS011;1255;48.716;9.124;2023-06-24T03:10:00;4.17;;;3.23;;
2488;SDS011;1255;48.716;9.124;2023-06-24T03:12:29;4.60;;;3.73;;
2488;SDS011;1255;48.716;9.124;2023-06-24T03:14:55;5.60;;;3.50;;
2488;SDS011;1255;48.716;9.124;2023-06-24T03:17:22;4.67;;;3.47;;
2488;SDS011;1255;48.716;9.124;2023-06-24T03:19:49;4.97;;;3.93;;
2488;SDS011;1255;48.716;9.124;2023-06-24T03:22:16;4.13;;;3.83;;
2488;SDS011;1255;48.716;9.124;2023-06-24T03:24:43;5.00;;;4.00;;
2488;SDS011;1255;48.716;9.124;2023-06-24T03:27:10;4.80;;;3.70;;
2488;SDS011;1255;48.716;9.124;2023-06-24T03:29:39;3.60;;;3.30;;
2488;SDS011;1255;48.716;9.124;2023-06-24T03:32:06;3.67;;;3.27;;
2488;SDS011;1255;48.716;9.124;2023-06-24T03:34:33;5.13;;;4.63;;
2488;SDS011;1255;48.716;9.124;2023-06-24T03:37:00;4.23;;;3.73;;
2488;SDS011;1255;48.716;9.124;2023-06-24T03:39:29;4.57;;;3.57;;
2488;SDS011;1255;48.716;9.124;2023-06-24T03:41:56;4.83;;;3.57;;
2488;SDS011;1255;48.716;9.124;2023-06-24T03:44:22;4.80;;;4.37;;
2488;SDS011;1255;48.716;9.124;2023-06-24T03:46:51;3.70;;;3.40;;
2488;SDS011;1255;48.716;9.124;2023-06-24T03:49:18;4.30;;;3.50;;
2488;SDS011;1255;48.716;9.124;2023-06-24T03:51:45;4.67;;;4.20;;
2488;SDS011;1255;48.716;9.124;2023-06-24T03:54:11;4.57;;;3.97;;
2488;SDS011;1255;48.716;9.124;2023-06-24T03:56:38;4.03;;;3.13;;
2488;SDS011;1255;48.716;9.124;2023-06-24T03:59:05;3.73;;;3.40;;
2488;SDS011;1255;48.716;9.124;2023-06-24T04:01:33;4.27;;;3.87;;
2488;SDS011;1255;48.716;9.124;2023-06-24T04:04:02;3.80;;;3.40;;
2488;SDS011;1255;48.716;9.124;2023-06-24T04:06:29;4.93;;;4.03;;
2488;SDS011;1255;48.716;9.124;2023-06-24T04:08:56;4.53;;;3.90;;
2488;SDS011;1255;48.716;9.124;2023-06-24T04:11:23;3.97;;;3.57;;
2488;SDS011;1255;48.716;9.124;2023-06-24T04:13:50;4.93;;;3.80;;
2488;SDS011;1255;48.716;9.124;2023-06-24T04:16:17;5.20;;;3.90;;
2488;SDS011;1255;48.716;9.124;2023-06-24T04:18:44;4.00;;;3.60;;
2488;SDS011;1255;48.716;9.124;2023-06-24T04:21:13;4.87;;;3.57;;
2488;SDS011;1255;48.716;9.124;2023-06-24T04:23:40;3.90;;;3.60;;
2488;SDS011;1255;48.716;9.124;2023-06-24T04:26:07;4.30;;;3.90;;
2488;SDS011;1255;48.716;9.124;2023-06-24T04:28:34;4.17;;;3.80;;
2488;SDS011;1255;48.716;9.124;2023-06-24T04:31:01;3.80;;;3.40;;
2488;SDS011;1255;48.716;9.124;2023-06-24T04:33:29;3.70;;;3.40;;
2488;SDS011;1255;48.716;9.124;2023-06-24T04:36:16;5.20;;;3.93;;
2488;SDS011;1255;48.716;9.124;2023-06-24T04:38:43;4.97;;;3.87;;
2488;SDS011;1255;48.716;9.124;2023-06-24T04:41:10;4.83;;;4.33;;
2488;SDS011;1255;48.716;9.124;2023-06-24T04:43:36;4.73;;;4.13;;
2488;SDS011;1255;48.716;9.124;2023-06-24T04:46:03;5.93;;;3.90;;
2488;SDS011;1255;48.716;9.124;2023-06-24T04:48:30;4.30;;;3.40;;
2488;SDS011;1255;48.716;9.124;2023-06-24T04:50:57;4.73;;;3.50;;
2488;SDS011;1255;48.716;9.124;2023-06-24T04:53:26;4.10;;;3.50;;
2488;SDS011;1255;48.716;9.124;2023-06-24T04:55:53;4.80;;;4.20;;
2488;SDS011;1255;48.716;9.124;2023-06-24T04:58:21;4.17;;;3.70;;
2488;SDS011;1255;48.716;9.124;2023-06-24T05:00:48;6.30;;;4.13;;
2488;SDS011;1255;48.716;9.124;2023-06-24T05:03:18;4.30;;;3.90;;
2488;SDS011;1255;48.716;9.124;2023-06-24T05:05:45;5.03;;;4.00;;
2488;SDS011;1255;48.716;9.124;2023-06-24T05:08:15;4.10;;;3.70;;
2488;SDS011;1255;48.716;9.124;2023-06-24T05:10:43;4.43;;;3.70;;
2488;SDS011;1255;48.716;9.124;2023-06-24T05:13:10;4.00;;;3.60;;
2488;SDS011;1255;48.716;9.124;2023-06-24T05:15:38;4.97;;;4.00;;
2488;SDS011;1255;48.716;9.124;2023-06-24T05:18:05;4.17;;;3.77;;
2488;SDS011;1255;48.716;9.124;2023-06-24T05:20:32;6.17;;;4.20;;
2488;SDS011;1255;48.716;9.124;2023-06-24T05:22:58;4.93;;;4.53;;
2488;SDS011;1255;48.716;9.124;2023-06-24T05:25:26;5.83;;;4.53;;
2488;SDS011;1255;48.716;9.124;2023-06-24T05:27:54;3.20;;;2.97;;
2488;SDS011;1255;48.716;9.124;2023-06-24T05:30:21;4.30;;;3.90;;
2488;SDS011;1255;48.716;9.124;2023-06-24T05:32:48;5.77;;;4.40;;
2488;SDS011;1255;48.716;9.124;2023-06-24T05:35:15;4.20;;;3.80;;
2488;SDS011;1255;48.716;9.124;2023-06-24T05:38:07;4.40;;;3.80;;
2488;SDS011;1255;48.716;9.124;2023-06-24T05:40:34;4.50;;;4.10;;
2488;SDS011;1255;48.716;9.124;2023-06-24T05:43:02;4.27;;;3.80;;
2488;SDS011;1255;48.716;9.124;2023-06-24T05:45:29;5.27;;;4.20;;
2488;SDS011;1255;48.716;9.124;2023-06-24T05:47:56;4.43;;;3.77;;
2488;SDS011;1255;48.716;9.124;2023-06-24T05:50:23;5.27;;;4.10;;
2488;SDS011;1255;48.716;9.124;2023-06-24T05:52:50;5.30;;;3.60;;
2488;SDS011;1255;48.716;9.124;2023-06-24T05:55:17;5.10;;;3.80;;
2488;SDS011;1255;48.716;9.124;2023-06-24T05:57:47;4.30;;;3.37;;
2488;SDS011;1255;48.716;9.124;2023-06-24T06:00:18;4.10;;;3.63;;
2488;SDS011;1255;48.716;9.124;2023-06-24T06:02:46;3.83;;;3.33;;
2488;SDS011;1255;48.716;9.124;2023-06-24T06:05:12;4.00;;;3.60;;
2488;SDS011;1255;48.716;9.124;2023-06-24T06:10:20;4.40;;;3.87;;
2488;SDS011;1255;48.716;9.124;2023-06-24T06:12:47;4.33;;;3.47;;
2488;SDS011;1255;48.716;9.124;2023-06-24T06:15:14;3.93;;;3.47;;
2488;SDS011;1255;48.716;9.124;2023-06-24T06:17:42;4.50;;;3.90;;
2488;SDS011;1255;48.716;9.124;2023-06-24T06:20:09;3.20;;;2.90;;
2488;SDS011;1255;48.716;9.124;2023-06-24T06:22:36;3.30;;;3.00;;
2488;SDS011;1255;48.716;9.124;2023-06-24T06:25:04;3.93;;;3.30;;
2488;SDS011;1255;48.716;9.124;2023-06-24T06:27:31;3.93;;;3.30;;
2488;SDS011;1255;48.716;9.124;2023-06-24T06:29:58;3.40;;;2.93;;
2488;SDS011;1255;48.716;9.124;2023-06-24T06:32:25;4.00;;;3.60;;
2488;SDS011;1255;48.716;9.124;2023-06-24T06:34:53;3.33;;;3.00;;
2488;SDS011;1255;48.716;9.124;2023-06-24T06:37:19;3.43;;;2.87;;
2488;SDS011;1255;48.716;9.124;2023-06-24T06:39:46;6.70;;;3.23;;
2488;SDS011;1255;48.716;9.124;2023-06-24T06:42:13;3.07;;;2.70;;
2488;SDS011;1255;48.716;9.124;2023-06-24T06:44:39;3.50;;;3.20;;
2488;SDS011;1255;48.716;9.124;2023-06-24T06:47:06;2.90;;;2.60;;
2488;SDS011;1255;48.716;9.124;2023-06-24T06:49:33;3.60;;;2.90;;
2488;SDS011;1255;48.716;9.124;2023-06-24T06:52:01;3.90;;;3.20;;
2488;SDS011;1255;48.716;9.124;2023-06-24T06:54:29;4.03;;;3.03;;
2488;SDS011;1255;48.716;9.124;2023-06-24T06:56:59;3.37;;;2.97;;
2488;SDS011;1255;48.716;9.124;2023-06-24T06:59:26;3.43;;;3.13;;
2488;SDS011;1255;48.716;9.124;2023-06-24T07:01:53;3.37;;;3.07;;
2488;SDS011;1255;48.716;9.124;2023-06-24T07:04:20;2.87;;;2.57;;
2488;SDS011;1255;48.716;9.124;2023-06-24T07:06:46;3.03;;;2.83;;
2488;SDS011;1255;48.716;9.124;2023-06-24T07:09:15;4.23;;;2.50;;
2488;SDS011;1255;48.716;9.124;2023-06-24T07:11:41;3.88;;;2.90;;
2488;SDS011;1255;48.716;9.124;2023-06-24T07:14:08;4.23;;;2.80;;
2488;SDS011;1255;48.716;9.124;2023-06-24T07:16:35;3.07;;;2.57;;
2488;SDS011;1255;48.716;9.124;2023-06-24T07:19:02;2.93;;;2.70;;
2488;SDS011;1255;48.716;9.124;2023-06-24T07:21:29;3.20;;;2.90;;
2488;SDS011;1255;48.716;9.124;2023-06-24T07:23:55;3.43;;;3.10;;
2488;SDS011;1255;48.716;9.124;2023-06-24T07:26:23;3.13;;;2.57;;
2488;SDS011;1255;48.716;9.124;2023-06-24T07:28:53;3.33;;;3.03;;
2488;SDS011;1255;48.716;9.124;2023-06-24T07:31:22;3.40;;;3.10;;
2488;SDS011;1255;48.716;9.124;2023-06-24T07:33:48;3.30;;;2.90;;
2488;SDS011;1255;48.716;9.124;2023-06-24T07:36:15;3.13;;;2.60;;
2488;SDS011;1255;48.716;9.124;2023-06-24T07:38:42;3.73;;;2.50;;
2488;SDS011;1255;48.716;9.124;2023-06-24T07:41:09;3.40;;;3.10;;
2488;SDS011;1255;48.716;9.124;2023-06-24T07:43:37;3.10;;;2.80;;
2488;SDS011;1255;48.716;9.124;2023-06-24T07:46:04;3.23;;;2.93;;
2488;SDS011;1255;48.716;9.124;2023-06-24T07:48:30;3.20;;;2.90;;
2488;SDS011;1255;48.716;9.124;2023-06-24T07:50:57;3.47;;;3.17;;
2488;SDS011;1255;48.716;9.124;2023-06-24T07:53:24;2.83;;;2.60;;
2488;SDS011;1255;48.716;9.124;2023-06-24T07:55:51;3.67;;;3.20;;
2488;SDS011;1255;48.716;9.124;2023-06-24T07:58:18;3.60;;;3.17;;
2488;SDS011;1255;48.716;9.124;2023-06-24T08:00:46;3.30;;;3.00;;
2488;SDS011;1255;48.716;9.124;2023-06-24T08:03:13;3.20;;;2.83;;
2488;SDS011;1255;48.716;9.124;2023-06-24T08:05:40;2.83;;;2.60;;
2488;SDS011;1255;48.716;9.124;2023-06-24T08:08:07;4.07;;;3.60;;
2488;SDS011;1255;48.716;9.124;2023-06-24T08:10:34;2.93;;;2.60;;
2488;SDS011;1255;48.716;9.124;2023-06-24T08:13:01;3.20;;;2.90;;
2488;SDS011;1255;48.716;9.124;2023-06-24T08:15:28;3.87;;;3.43;;
2488;SDS011;1255;48.716;9.124;2023-06-24T08:17:56;3.10;;;2.63;;
2488;SDS011;1255;48.716;9.124;2023-06-24T08:20:23;3.43;;;3.13;;
2488;SDS011;1255;48.716;9.124;2023-06-24T08:22:50;3.40;;;3.07;;
2488;SDS011;1255;48.716;9.124;2023-06-24T08:25:16;3.90;;;2.77;;
2488;SDS011;1255;48.716;9.124;2023-06-24T08:27:43;3.20;;;2.90;;
2488;SDS011;1255;48.716;9.124;2023-06-24T08:30:12;3.27;;;2.97;;
2488;SDS011;1255;48.716;9.124;2023-06-24T08:32:39;3.57;;;3.10;;
2488;SDS011;1255;48.716;9.124;2023-06-24T08:35:08;3.30;;;3.00;;
2488;SDS011;1255;48.716;9.124;2023-06-24T08:37:35;3.30;;;2.93;;
2488;SDS011;1255;48.716;9.124;2023-06-24T08:40:02;3.53;;;3.03;;
2488;SDS011;1255;48.716;9.124;2023-06-24T08:42:30;2.90;;;2.60;;
2488;SDS011;1255;48.716;9.124;2023-06-24T08:44:57;4.57;;;3.63;;
2488;SDS011;1255;48.716;9.124;2023-06-24T08:47:24;3.10;;;2.80;;
2488;SDS011;1255;48.716;9.124;2023-06-24T08:49:55;3.13;;;2.83;;
2488;SDS011;1255;48.716;9.124;2023-06-24T08:52:30;3.50;;;3.10;;
2488;SDS011;1255;48.716;9.124;2023-06-24T08:55:00;3.10;;;2.80;;
2488;SDS011;1255;48.716;9.124;2023-06-24T08:57:27;3.83;;;3.10;;
2488;SDS011;1255;48.716;9.124;2023-06-24T08:59:54;2.53;;;2.33;;
2488;SDS011;1255;48.716;9.124;2023-06-24T09:02:21;2.97;;;2.50;;
2488;SDS011;1255;48.716;9.124;2023-06-24T09:04:48;8.63;;;3.47;;
2488;SDS011;1255;48.716;9.124;2023-06-24T09:07:23;3.23;;;2.97;;
2488;SDS011;1255;48.716;9.124;2023-06-24T09:09:52;2.30;;;2.10;;
2488;SDS011;1255;48.716;9.124;2023-06-24T09:12:19;3.20;;;2.93;;
2488;SDS011;1255;48.716;9.124;2023-06-24T09:14:47;4.10;;;3.00;;
2488;SDS011;1255;48.716;9.124;2023-06-24T09:17:15;3.43;;;3.10;;
2488;SDS011;1255;48.716;9.124;2023-06-24T09:19:42;2.60;;;2.40;;
2488;SDS011;1255;48.716;9.124;2023-06-24T09:22:09;3.43;;;2.73;;
2488;SDS011;1255;48.716;9.124;2023-06-24T09:24:41;3.40;;;2.67;;
2488;SDS011;1255;48.716;9.124;2023-06-24T09:27:11;3.10;;;2.80;;
2488;SDS011;1255;48.716;9.124;2023-06-24T09:29:39;3.60;;;2.73;;
2488;SDS011;1255;48.716;9.124;2023-06-24T09:32:06;3.20;;;2.90;;
2488;SDS011;1255;48.716;9.124;2023-06-24T09:34:33;3.10;;;2.80;;
2488;SDS011;1255;48.716;9.124;2023-06-24T09:37:00;3.20;;;2.90;;
2488;SDS011;1255;48.716;9.124;2023-06-24T09:39:27;3.20;;;2.90;;
2488;SDS011;1255;48.716;9.124;2023-06-24T09:42:01;3.87;;;3.03;;
2488;SDS011;1255;48.716;9.124;2023-06-24T09:44:29;3.57;;;3.17;;
2488;SDS011;1255;48.716;9.124;2023-06-24T09:46:56;2.57;;;2.37;;
2488;SDS011;1255;48.716;9.124;2023-06-24T09:49:23;3.40;;;3.10;;
2488;SDS011;1255;48.716;9.124;2023-06-24T09:51:50;4.33;;;2.87;;
2488;SDS011;1255;48.716;9.124;2023-06-24T09:54:21;3.03;;;2.73;;
2488;SDS011;1255;48.716;9.124;2023-06-24T09:56:49;3.13;;;2.83;;
2488;SDS011;1255;48.716;9.124;2023-06-24T09:59:17;2.43;;;2.23;;
2488;SDS011;1255;48.716;9.124;2023-06-24T10:01:48;3.07;;;2.80;;
2488;SDS011;1255;48.716;9.124;2023-06-24T10:04:18;2.57;;;2.37;;
2488;SDS011;1255;48.716;9.124;2023-06-24T10:06:47;3.33;;;2.77;;
2488;SDS011;1255;48.716;9.124;2023-06-24T10:09:14;3.07;;;2.80;;
2488;SDS011;1255;48.716;9.124;2023-06-24T10:11:43;3.47;;;2.70;;
2488;SDS011;1255;48.716;9.124;2023-06-24T10:14:10;3.70;;;2.60;;
2488;SDS011;1255;48.716;9.124;2023-06-24T10:16:37;4.00;;;2.60;;
2488;SDS011;1255;48.716;9.124;2023-06-24T10:19:05;3.30;;;2.80;;
2488;SDS011;1255;48.716;9.124;2023-06-24T10:21:44;3.13;;;2.53;;
2488;SDS011;1255;48.716;9.124;2023-06-24T10:24:13;3.53;;;2.90;;
2488;SDS011;1255;48.716;9.124;2023-06-24T10:26:53;3.00;;;2.70;;
2488;SDS011;1255;48.716;9.124;2023-06-24T10:29:29;2.70;;;2.50;;
2488;SDS011;1255;48.716;9.124;2023-06-24T10:31:57;2.93;;;2.63;;
2488;SDS011;1255;48.716;9.124;2023-06-24T10:34:33;2.90;;;2.60;;
2488;SDS011;1255;48.716;9.124;2023-06-24T10:37:14;3.13;;;2.70;;
2488;SDS011;1255;48.716;9.124;2023-06-24T10:39:48;3.47;;;2.70;;
2488;SDS011;1255;48.716;9.124;2023-06-24T10:42:32;3.30;;;2.50;;
2488;SDS011;1255;48.716;9.124;2023-06-24T10:45:13;2.40;;;2.20;;
2488;SDS011;1255;48.716;9.124;2023-06-24T10:47:42;2.40;;;2.07;;
2488;SDS011;1255;48.716;9.124;2023-06-24T10:50:11;3.20;;;2.53;;
2488;SDS011;1255;48.716;9.124;2023-06-24T10:52:40;2.50;;;2.27;;
2488;SDS011;1255;48.716;9.124;2023-06-24T10:55:07;2.80;;;2.60;;
2488;SDS011;1255;48.716;9.124;2023-06-24T10:57:35;2.70;;;2.50;;
2488;SDS011;1255;48.716;9.124;2023-06-24T11:00:03;2.40;;;2.20;;
2488;SDS011;1255;48.716;9.124;2023-06-24T11:02:30;4.33;;;2.50;;
2488;SDS011;1255;48.716;9.124;2023-06-24T11:04:58;2.50;;;2.30;;
2488;SDS011;1255;48.716;9.124;2023-06-24T11:07:27;3.10;;;2.80;;
2488;SDS011;1255;48.716;9.124;2023-06-24T11:09:56;3.60;;;2.43;;
2488;SDS011;1255;48.716;9.124;2023-06-24T11:12:25;3.37;;;2.60;;
2488;SDS011;1255;48.716;9.124;2023-06-24T11:14:55;2.70;;;2.50;;
2488;SDS011;1255;48.716;9.124;2023-06-24T11:17:23;2.37;;;2.17;;
2488;SDS011;1255;48.716;9.124;2023-06-24T11:19:49;3.20;;;2.30;;
2488;SDS011;1255;48.716;9.124;2023-06-24T11:22:18;3.37;;;2.50;;
2488;SDS011;1255;48.716;9.124;2023-06-24T11:24:46;2.70;;;2.50;;
2488;SDS011;1255;48.716;9.124;2023-06-24T11:27:12;4.00;;;2.77;;
2488;SDS011;1255;48.716;9.124;2023-06-24T11:29:39;3.80;;;2.60;;
2488;SDS011;1255;48.716;9.124;2023-06-24T11:32:06;3.17;;;2.87;;
2488;SDS011;1255;48.716;9.124;2023-06-24T11:34:34;2.57;;;2.37;;
2488;SDS011;1255;48.716;9.124;2023-06-24T11:37:08;3.17;;;2.87;;
2488;SDS011;1255;48.716;9.124;2023-06-24T11:39:36;4.37;;;3.17;;
2488;SDS011;1255;48.716;9.124;2023-06-24T11:42:05;2.97;;;2.67;;
2488;SDS011;1255;48.716;9.124;2023-06-24T11:44:33;2.80;;;2.60;;
2488;SDS011;1255;48.716;9.124;2023-06-24T11:47:03;2.63;;;2.43;;
2488;SDS011;1255;48.716;9.124;2023-06-24T11:49:30;2.60;;;2.33;;
2488;SDS011;1255;48.716;9.124;2023-06-24T11:51:57;3.10;;;2.80;;
2488;SDS011;1255;48.716;9.124;2023-06-24T11:54:24;2.50;;;2.30;;
2488;SDS011;1255;48.716;9.124;2023-06-24T11:56:51;2.80;;;2.60;;
2488;SDS011;1255;48.716;9.124;2023-06-24T11:59:20;3.60;;;3.17;;
2488;SDS011;1255;48.716;9.124;2023-06-24T12:01:54;2.40;;;2.20;;
2488;SDS011;1255;48.716;9.124;2023-06-24T12:04:26;2.53;;;2.33;;
2488;SDS011;1255;48.716;9.124;2023-06-24T12:06:54;2.97;;;2.67;;
2488;SDS011;1255;48.716;9.124;2023-06-24T12:09:21;3.07;;;2.00;;
2488;SDS011;1255;48.716;9.124;2023-06-24T12:11:47;2.60;;;2.40;;
2488;SDS011;1255;48.716;9.124;2023-06-24T12:14:14;2.50;;;2.30;;
2488;SDS011;1255;48.716;9.124;2023-06-24T12:16:42;2.60;;;2.40;;
2488;SDS011;1255;48.716;9.124;2023-06-24T12:19:09;3.17;;;2.70;;
2488;SDS011;1255;48.716;9.124;2023-06-24T12:21:36;2.47;;;2.27;;
2488;SDS011;1255;48.716;9.124;2023-06-24T12:24:04;2.60;;;2.40;;
2488;SDS011;1255;48.716;9.124;2023-06-24T12:26:31;4.43;;;2.60;;
2488;SDS011;1255;48.716;9.124;2023-06-24T12:28:58;3.13;;;2.73;;
2488;SDS011;1255;48.716;9.124;2023-06-24T12:31:25;2.70;;;2.50;;
2488;SDS011;1255;48.716;9.124;2023-06-24T12:33:53;2.50;;;2.30;;
2488;SDS011;1255;48.716;9.124;2023-06-24T12:36:20;3.37;;;3.07;;
2488;SDS011;1255;48.716;9.124;2023-06-24T12:38:47;2.63;;;2.43;;
2488;SDS011;1255;48.716;9.124;2023-06-24T12:41:14;2.60;;;2.20;;
2488;SDS011;1255;48.716;9.124;2023-06-24T12:43:41;2.60;;;2.40;;
2488;SDS011;1255;48.716;9.124;2023-06-24T12:46:07;2.60;;;2.40;;
2488;SDS011;1255;48.716;9.124;2023-06-24T12:48:34;2.70;;;2.30;;
2488;SDS011;1255;48.716;9.124;2023-06-24T12:51:02;3.10;;;2.80;;
2488;SDS011;1255;48.716;9.124;2023-06-24T12:53:29;3.10;;;2.80;;
2488;SDS011;1255;48.716;9.124;2023-06-24T12:55:56;2.90;;;2.67;;
2488;SDS011;1255;48.716;9.124;2023-06-24T12:58:23;3.17;;;2.80;;
2488;SDS011;1255;48.716;9.124;2023-06-24T13:00:50;3.07;;;2.70;;
2488;SDS011;1255;48.716;9.124;2023-06-24T13:03:17;5.50;;;2.70;;
2488;SDS011;1255;48.716;9.124;2023-06-24T13:05:44;3.07;;;2.77;;
2488;SDS011;1255;48.716;9.124;2023-06-24T13:08:12;3.20;;;2.80;;
2488;SDS011;1255;48.716;9.124;2023-06-24T13:10:39;2.80;;;2.60;;
2488;SDS011;1255;48.716;9.124;2023-06-24T13:13:06;2.63;;;2.43;;
2488;SDS011;1255;48.716;9.124;2023-06-24T13:15:33;2.90;;;2.47;;
2488;SDS011;1255;48.716;9.124;2023-06-24T13:17:59;2.60;;;2.40;;
2488;SDS011;1255;48.716;9.124;2023-06-24T13:20:27;2.50;;;2.30;;
2488;SDS011;1255;48.716;9.124;2023-06-24T13:22:54;2.50;;;2.30;;
2488;SDS011;1255;48.716;9.124;2023-06-24T13:25:22;3.20;;;2.90;;
2488;SDS011;1255;48.716;9.124;2023-06-24T13:27:49;2.93;;;2.63;;
2488;SDS011;1255;48.716;9.124;2023-06-24T13:30:15;2.60;;;2.37;;
2488;SDS011;1255;48.716;9.124;2023-06-24T13:32:44;2.73;;;2.53;;
2488;SDS011;1255;48.716;9.124;2023-06-24T13:35:10;2.60;;;2.40;;
2488;SDS011;1255;48.716;9.124;2023-06-24T13:37:37;3.00;;;2.70;;
2488;SDS011;1255;48.716;9.124;2023-06-24T13:40:05;2.67;;;2.47;;
2488;SDS011;1255;48.716;9.124;2023-06-24T13:42:34;2.83;;;2.63;;
2488;SDS011;1255;48.716;9.124;2023-06-24T13:45:01;2.70;;;2.47;;
2488;SDS011;1255;48.716;9.124;2023-06-24T13:47:27;2.67;;;2.40;;
2488;SDS011;1255;48.716;9.124;2023-06-24T13:49:54;2.83;;;2.37;;
2488;SDS011;1255;48.716;9.124;2023-06-24T13:52:22;3.07;;;2.87;;
2488;SDS011;1255;48.716;9.124;2023-06-24T13:54:49;2.47;;;2.27;;
2488;SDS011;1255;48.716;9.124;2023-06-24T13:57:16;2.73;;;2.53;;
2488;SDS011;1255;48.716;9.124;2023-06-24T13:59:44;2.70;;;2.50;;
2488;SDS011;1255;48.716;9.124;2023-06-24T14:02:10;3.00;;;2.70;;
2488;SDS011;1255;48.716;9.124;2023-06-24T14:04:37;3.47;;;2.60;;
2488;SDS011;1255;48.716;9.124;2023-06-24T14:07:05;2.70;;;2.50;;
2488;SDS011;1255;48.716;9.124;2023-06-24T14:09:32;2.60;;;2.40;;
2488;SDS011;1255;48.716;9.124;2023-06-24T14:11:59;3.10;;;2.80;;
2488;SDS011;1255;48.716;9.124;2023-06-24T14:14:26;4.27;;;3.87;;
2488;SDS011;1255;48.716;9.124;2023-06-24T14:16:54;3.27;;;2.70;;
2488;SDS011;1255;48.716;9.124;2023-06-24T14:19:21;3.17;;;2.50;;
2488;SDS011;1255;48.716;9.124;2023-06-24T14:21:47;2.93;;;2.73;;
2488;SDS011;1255;48.716;9.124;2023-06-24T14:24:14;3.10;;;2.80;;
2488;SDS011;1255;48.716;9.124;2023-06-24T14:26:41;4.00;;;2.80;;
2488;SDS011;1255;48.716;9.124;2023-06-24T14:29:08;2.97;;;2.63;;
2488;SDS011;1255;48.716;9.124;2023-06-24T14:31:34;2.50;;;2.30;;
2488;SDS011;1255;48.716;9.124;2023-06-24T14:34:02;3.97;;;2.90;;
2488;SDS011;1255;48.716;9.124;2023-06-24T14:36:29;3.00;;;2.70;;
2488;SDS011;1255;48.716;9.124;2023-06-24T14:38:56;3.00;;;2.67;;
2488;SDS011;1255;48.716;9.124;2023-06-24T14:41:23;3.50;;;2.57;;
2488;SDS011;1255;48.716;9.124;2023-06-24T14:43:50;3.57;;;2.37;;
2488;SDS011;1255;48.716;9.124;2023-06-24T14:46:17;3.37;;;2.73;;
2488;SDS011;1255;48.716;9.124;2023-06-24T14:48:43;3.13;;;2.80;;
2488;SDS011;1255;48.716;9.124;2023-06-24T14:51:11;3.00;;;2.70;;
2488;SDS011;1255;48.716;9.124;2023-06-24T14:53:38;2.90;;;2.60;;
2488;SDS011;1255;48.716;9.124;2023-06-24T14:56:05;2.97;;;2.60;;
2488;SDS011;1255;48.716;9.124;2023-06-24T14:58:32;3.00;;;2.60;;
2488;SDS011;1255;48.716;9.124;2023-06-24T15:00:59;3.30;;;2.83;;
2488;SDS011;1255;48.716;9.124;2023-06-24T15:03:25;2.93;;;2.63;;
2488;SDS011;1255;48.716;9.124;2023-06-24T15:05:52;2.87;;;2.60;;
2488;SDS011;1255;48.716;9.124;2023-06-24T15:08:20;3.27;;;2.90;;
2488;SDS011;1255;48.716;9.124;2023-06-24T15:10:47;2.87;;;2.57;;
2488;SDS011;1255;48.716;9.124;2023-06-24T15:13:13;2.70;;;2.50;;
2488;SDS011;1255;48.716;9.124;2023-06-24T15:15:40;2.80;;;2.50;;
2488;SDS011;1255;48.716;9.124;2023-06-24T15:18:07;3.27;;;2.97;;
2488;SDS011;1255;48.716;9.124;2023-06-24T15:20:34;3.20;;;2.90;;
2488;SDS011;1255;48.716;9.124;2023-06-24T15:23:00;3.60;;;2.80;;
2488;SDS011;1255;48.716;9.124;2023-06-24T15:25:29;3.50;;;3.00;;